createdAt,value
2022-11-05T00:02:31.634Z,6.12
2022-11-05T00:05:18.251Z,6.08
2022-11-05T00:08:06.165Z,6.03
2022-11-05T00:10:36.369Z,5.94
2022-11-05T00:13:22.167Z,5.93
2022-11-05T00:16:07.612Z,5.90
2022-11-05T00:18:35.639Z,5.73
2022-11-05T00:21:04.999Z,5.65
2022-11-05T00:23:50.186Z,5.57
2022-11-05T00:26:18.163Z,5.54
2022-11-05T00:28:50.903Z,5.49
2022-11-05T00:31:18.898Z,5.48
2022-11-05T00:33:50.277Z,5.47
2022-11-05T00:36:21.336Z,5.58
2022-11-05T00:38:49.509Z,5.62
2022-11-05T00:41:17.327Z,5.60
2022-11-05T00:44:02.591Z,5.55
2022-11-05T00:46:30.611Z,5.48
2022-11-05T00:49:15.888Z,5.40
2022-11-05T00:51:45.232Z,5.34
2022-11-05T00:54:13.074Z,5.28
2022-11-05T00:56:41.037Z,5.24
2022-11-05T00:59:08.902Z,5.15
2022-11-05T01:01:36.777Z,5.12
2022-11-05T01:04:04.925Z,5.07
2022-11-05T01:06:32.770Z,5.06
2022-11-05T01:09:01.950Z,5.00
2022-11-05T01:11:36.966Z,5.01
2022-11-05T01:14:07.648Z,5.03
2022-11-05T01:16:35.720Z,5.02
2022-11-05T01:19:04.251Z,4.94
2022-11-05T01:21:32.379Z,4.91
2022-11-05T01:24:00.292Z,4.84
2022-11-05T01:26:29.675Z,4.77
2022-11-05T01:29:00.337Z,4.70
2022-11-05T01:31:28.585Z,4.65
2022-11-05T01:33:56.510Z,4.68
2022-11-05T01:36:24.404Z,4.67
2022-11-05T01:38:52.364Z,4.75
2022-11-05T01:41:20.241Z,4.75
2022-11-05T01:43:50.763Z,4.83
2022-11-05T01:46:20.800Z,5.04
2022-11-05T01:48:50.163Z,5.07
2022-11-05T01:51:19.815Z,5.12
2022-11-05T01:53:49.493Z,5.10
2022-11-05T01:56:19.136Z,5.12
2022-11-05T01:58:49.649Z,5.11
2022-11-05T02:01:19.354Z,5.05
2022-11-05T02:03:49.318Z,5.01
2022-11-05T02:06:17.825Z,5.08
2022-11-05T02:08:50.244Z,5.14
2022-11-05T02:11:19.362Z,5.15
2022-11-05T02:13:48.120Z,5.23
2022-11-05T02:16:19.958Z,5.12
2022-11-05T02:18:54.176Z,5.09
2022-11-05T02:21:42.075Z,4.98
2022-11-05T02:24:59.211Z,4.94
2022-11-05T02:27:48.382Z,4.80
2022-11-05T02:30:31.878Z,4.75
2022-11-05T02:33:07.565Z,4.67
2022-11-05T02:35:50.416Z,4.55
2022-11-05T02:38:20.481Z,4.45
2022-11-05T02:40:51.468Z,4.43
2022-11-05T02:43:25.885Z,4.48
2022-11-05T02:46:02.768Z,4.44
2022-11-05T02:48:36.667Z,4.38
2022-11-05T02:51:06.873Z,4.31
2022-11-05T02:53:39.766Z,4.32
2022-11-05T02:56:10.054Z,4.26
2022-11-05T02:58:37.895Z,4.25
2022-11-05T03:01:07.593Z,4.26
2022-11-05T03:03:37.151Z,4.24
2022-11-05T03:06:20.937Z,4.12
2022-11-05T03:08:54.875Z,4.14
2022-11-05T03:11:25.001Z,4.28
2022-11-05T03:13:54.852Z,4.30
2022-11-05T03:16:30.659Z,4.22
2022-11-05T03:19:02.250Z,4.27
2022-11-05T03:21:36.204Z,4.45
2022-11-05T03:24:08.448Z,4.45
2022-11-05T03:26:38.912Z,4.50
2022-11-05T03:29:10.489Z,4.44
2022-11-05T03:31:41.909Z,4.36
2022-11-05T03:34:12.570Z,4.24
2022-11-05T03:36:42.742Z,4.10
2022-11-05T03:39:14.804Z,4.09
2022-11-05T03:41:44.396Z,4.05
2022-11-05T03:44:14.088Z,4.04
2022-11-05T03:46:45.322Z,3.94
2022-11-05T03:49:17.580Z,3.88
2022-11-05T03:51:49.135Z,3.84
2022-11-05T03:54:17.178Z,3.94
2022-11-05T03:56:47.471Z,3.93
2022-11-05T03:59:15.512Z,3.88
2022-11-05T04:01:45.052Z,3.77
2022-11-05T04:04:12.968Z,3.73
2022-11-05T04:06:58.469Z,3.68
2022-11-05T04:09:43.835Z,3.69
2022-11-05T04:12:29.118Z,3.62
2022-11-05T04:14:57.112Z,3.64
2022-11-05T04:17:25.464Z,3.67
2022-11-05T04:20:10.817Z,3.72
2022-11-05T04:22:56.335Z,3.81
2022-11-05T04:25:24.369Z,3.84
2022-11-05T04:27:52.483Z,3.84
2022-11-05T04:30:19.615Z,3.81
2022-11-05T04:32:57.936Z,3.73
2022-11-05T04:35:26.673Z,3.73
2022-11-05T04:37:54.584Z,3.69
2022-11-05T04:40:22.516Z,3.69
2022-11-05T04:42:50.594Z,3.83
2022-11-05T04:45:18.556Z,3.87
2022-11-05T04:47:46.538Z,3.87
2022-11-05T04:50:15.799Z,3.93
2022-11-05T04:52:43.922Z,4.14
2022-11-05T04:55:11.773Z,4.10
2022-11-05T04:57:39.785Z,4.12
2022-11-05T05:00:08.510Z,4.07
2022-11-05T05:02:36.723Z,4.09
2022-11-05T05:05:04.810Z,4.10
2022-11-05T05:07:34.389Z,4.03
2022-11-05T05:10:02.656Z,4.01
2022-11-05T05:12:30.699Z,4.05
2022-11-05T05:14:58.518Z,4.01
2022-11-05T05:17:26.412Z,3.94
2022-11-05T05:20:26.396Z,4.02
2022-11-05T05:22:56.260Z,4.04
2022-11-05T05:25:24.166Z,4.07
2022-11-05T05:27:52.377Z,4.04
2022-11-05T05:30:20.353Z,4.01
2022-11-05T05:32:48.240Z,4.10
2022-11-05T05:35:17.190Z,4.03
2022-11-05T05:37:45.483Z,4.02
2022-11-05T05:40:14.767Z,4.04
2022-11-05T05:42:43.608Z,4.01
2022-11-05T05:45:12.209Z,3.96
2022-11-05T05:47:40.202Z,4.04
2022-11-05T05:50:08.281Z,3.97
2022-11-05T05:52:36.135Z,3.99
2022-11-05T05:55:03.958Z,4.07
2022-11-05T05:57:33.112Z,4.11
2022-11-05T06:00:01.834Z,4.09
2022-11-05T06:02:31.007Z,4.21
2022-11-05T06:04:58.932Z,4.23
2022-11-05T06:07:26.801Z,4.32
2022-11-05T06:09:54.627Z,4.21
2022-11-05T06:12:22.647Z,4.22
2022-11-05T06:14:51.883Z,4.14
2022-11-05T06:17:19.694Z,4.07
2022-11-05T06:19:47.786Z,4.09
2022-11-05T06:22:16.003Z,4.13
2022-11-05T06:24:44.068Z,4.07
2022-11-05T06:27:11.880Z,4.09
2022-11-05T06:29:39.814Z,4.11
2022-11-05T06:32:09.088Z,4.03
2022-11-05T06:34:37.713Z,4.09
2022-11-05T06:37:05.523Z,4.12
2022-11-05T06:39:33.323Z,4.13
2022-11-05T06:42:17.912Z,4.11
2022-11-05T06:44:46.925Z,4.13
2022-11-05T06:47:16.109Z,4.12
2022-11-05T06:49:43.908Z,4.16
2022-11-05T06:52:11.726Z,4.17
2022-11-05T06:54:39.878Z,4.32
2022-11-05T06:57:09.516Z,4.78
2022-11-05T06:59:37.368Z,5.45
2022-11-05T07:02:05.288Z,5.95
2022-11-05T07:04:34.648Z,6.28
2022-11-05T07:07:02.714Z,6.65
2022-11-05T07:09:31.001Z,7.00
2022-11-05T07:11:58.904Z,7.33
2022-11-05T07:14:26.742Z,7.58
2022-11-05T07:16:54.619Z,7.97
2022-11-05T07:19:22.420Z,8.46
2022-11-05T07:21:52.377Z,8.46
2022-11-05T07:24:20.219Z,8.85
2022-11-05T07:26:48.279Z,9.14
2022-11-05T07:29:16.083Z,9.35
2022-11-05T07:31:44.072Z,9.90
2022-11-05T07:34:11.973Z,10.59
2022-11-05T07:36:40.301Z,10.98
2022-11-05T07:39:09.781Z,11.67
2022-11-05T07:41:37.608Z,12.55
2022-11-05T07:44:05.717Z,13.54
2022-11-05T07:46:33.584Z,14.46
2022-11-05T07:49:01.366Z,15.01
2022-11-05T07:51:29.310Z,15.08
2022-11-05T07:53:57.373Z,15.83
2022-11-05T07:56:26.683Z,15.82
2022-11-05T07:58:54.478Z,15.77
2022-11-05T08:01:22.586Z,16.25
2022-11-05T08:03:50.511Z,16.92
2022-11-05T08:06:18.354Z,16.95
2022-11-05T08:08:46.319Z,17.99
2022-11-05T08:11:14.494Z,17.79
2022-11-05T08:13:43.980Z,18.81
2022-11-05T08:16:11.796Z,18.82
2022-11-05T08:18:39.612Z,18.55
2022-11-05T08:21:08.864Z,18.68
2022-11-05T08:23:36.878Z,18.49
2022-11-05T08:26:05.054Z,17.96
2022-11-05T08:28:32.927Z,18.67
2022-11-05T08:31:02.116Z,19.70
2022-11-05T08:33:31.295Z,20.77
2022-11-05T08:36:02.651Z,19.53
2022-11-05T08:38:30.937Z,20.64
2022-11-05T08:40:59.089Z,20.88
2022-11-05T08:43:26.993Z,20.46
2022-11-05T08:45:55.132Z,20.68
2022-11-05T08:48:24.396Z,21.41
2022-11-05T08:50:52.400Z,22.27
2022-11-05T08:53:20.230Z,22.48
2022-11-05T08:55:50.111Z,22.93
2022-11-05T08:58:18.377Z,23.68
2022-11-05T09:00:47.821Z,23.78
2022-11-05T09:03:16.564Z,23.81
2022-11-05T09:05:46.108Z,24.42
2022-11-05T09:08:15.254Z,24.11
2022-11-05T09:10:44.549Z,25.45
2022-11-05T09:13:18.320Z,25.69
2022-11-05T09:15:47.942Z,25.37
2022-11-05T09:18:15.991Z,26.35
2022-11-05T09:20:44.129Z,24.69
2022-11-05T09:23:23.994Z,26.01
2022-11-05T09:25:51.803Z,27.00
2022-11-05T09:28:20.504Z,26.53
2022-11-05T09:30:49.473Z,25.62
2022-11-05T09:33:18.031Z,25.87
2022-11-05T09:35:45.910Z,25.92
2022-11-05T09:38:14.337Z,25.08
2022-11-05T09:40:48.005Z,26.10
2022-11-05T09:43:18.992Z,26.01
2022-11-05T09:45:47.398Z,24.42
2022-11-05T09:48:16.977Z,23.44
2022-11-05T09:50:45.995Z,22.29
2022-11-05T09:53:15.414Z,24.13
2022-11-05T09:55:46.387Z,26.08
2022-11-05T09:58:16.589Z,27.59
2022-11-05T10:00:48.514Z,26.53
2022-11-05T10:03:19.929Z,26.02
2022-11-05T10:05:48.787Z,27.01
2022-11-05T10:08:20.993Z,26.47
2022-11-05T10:10:51.467Z,26.32
2022-11-05T10:13:22.872Z,27.36
2022-11-05T10:15:54.923Z,27.11
2022-11-05T10:18:25.602Z,27.93
2022-11-05T10:20:53.417Z,25.88
2022-11-05T10:23:22.668Z,25.89
2022-11-05T10:25:54.727Z,25.54
2022-11-05T10:28:24.218Z,27.82
2022-11-05T10:30:53.711Z,27.48
2022-11-05T10:33:26.193Z,28.12
2022-11-05T10:35:56.656Z,28.98
2022-11-05T10:38:25.160Z,30.04
2022-11-05T10:41:02.667Z,29.10
2022-11-05T10:43:35.108Z,28.41
2022-11-05T10:46:07.657Z,28.76
2022-11-05T10:48:43.934Z,29.73
2022-11-05T10:51:12.637Z,28.50
2022-11-05T10:53:40.716Z,29.51
2022-11-05T10:56:23.425Z,24.90
2022-11-05T10:58:56.330Z,24.12
2022-11-05T11:01:26.063Z,22.13
2022-11-05T11:04:04.957Z,22.11
2022-11-05T11:06:34.501Z,23.22
2022-11-05T11:09:03.499Z,23.82
2022-11-05T11:11:33.265Z,23.76
2022-11-05T11:14:03.589Z,21.05
2022-11-05T11:16:34.929Z,20.66
2022-11-05T11:19:03.614Z,19.46
2022-11-05T11:21:32.172Z,17.57
2022-11-05T11:24:00.806Z,18.27
2022-11-05T11:26:30.750Z,18.64
2022-11-05T11:29:00.110Z,17.90
2022-11-05T11:31:30.673Z,15.97
2022-11-05T11:34:00.967Z,16.23
2022-11-05T11:36:33.523Z,15.64
2022-11-05T11:39:02.481Z,15.66
2022-11-05T11:41:32.311Z,16.07
2022-11-05T11:44:02.555Z,16.57
2022-11-05T11:46:33.767Z,16.91
2022-11-05T11:49:01.745Z,17.15
2022-11-05T11:51:35.063Z,17.88
2022-11-05T11:54:04.113Z,19.40
2022-11-05T11:56:42.959Z,21.29
2022-11-05T11:59:15.607Z,19.94
2022-11-05T12:01:57.692Z,21.69
2022-11-05T12:04:40.478Z,20.40
2022-11-05T12:07:17.400Z,21.51
2022-11-05T12:09:52.360Z,21.10
2022-11-05T12:12:23.441Z,18.47
2022-11-05T12:14:56.302Z,16.92
2022-11-05T12:17:31.972Z,15.28
2022-11-05T12:20:04.518Z,14.59
2022-11-05T12:22:42.353Z,14.15
2022-11-05T12:25:19.582Z,13.78
2022-11-05T12:27:56.435Z,13.51
2022-11-05T12:30:24.418Z,13.36
2022-11-05T12:33:09.988Z,13.08
2022-11-05T12:35:46.993Z,13.41
2022-11-05T12:38:22.094Z,13.49
2022-11-05T12:40:58.717Z,13.46
2022-11-05T12:43:32.065Z,13.39
2022-11-05T12:46:03.396Z,13.42
2022-11-05T12:48:46.407Z,13.24
2022-11-05T12:51:20.143Z,13.56
2022-11-05T12:53:56.662Z,13.79
2022-11-05T12:56:27.677Z,13.75
2022-11-05T12:58:58.961Z,13.85
2022-11-05T13:01:32.463Z,14.74
2022-11-05T13:04:06.608Z,14.46
2022-11-05T13:06:37.200Z,13.82
2022-11-05T13:09:08.533Z,13.08
2022-11-05T13:11:38.626Z,12.69
2022-11-05T13:14:09.979Z,12.71
2022-11-05T13:16:38.870Z,12.61
2022-11-05T13:19:13.964Z,12.43
2022-11-05T13:21:43.198Z,12.47
2022-11-05T13:24:14.328Z,12.43
2022-11-05T13:26:45.208Z,12.56
2022-11-05T13:29:14.663Z,12.86
2022-11-05T13:31:44.818Z,12.69
2022-11-05T13:34:14.149Z,12.90
2022-11-05T13:37:05.720Z,13.08
2022-11-05T13:39:57.745Z,12.81
2022-11-05T13:42:40.465Z,12.40
2022-11-05T13:45:20.960Z,12.21
2022-11-05T13:47:54.587Z,12.52
2022-11-05T13:50:40.663Z,12.79
2022-11-05T13:53:23.165Z,13.30
2022-11-05T13:56:01.664Z,13.38
2022-11-05T13:58:46.717Z,13.63
2022-11-05T14:01:22.276Z,13.18
2022-11-05T14:03:51.712Z,12.79
2022-11-05T14:06:24.687Z,12.45
2022-11-05T14:08:53.195Z,12.07
2022-11-05T14:11:26.051Z,11.94
2022-11-05T14:13:57.171Z,11.86
2022-11-05T14:16:26.674Z,11.64
2022-11-05T14:18:56.220Z,11.66
2022-11-05T14:21:34.335Z,11.60
2022-11-05T14:24:20.308Z,11.64
2022-11-05T14:27:15.718Z,11.34
2022-11-05T14:29:46.007Z,11.25
2022-11-05T14:32:27.589Z,11.31
2022-11-05T14:34:57.224Z,11.29
2022-11-05T14:37:29.562Z,11.23
2022-11-05T14:40:01.411Z,11.27
2022-11-05T14:42:30.480Z,11.05
2022-11-05T14:45:19.616Z,11.09
2022-11-05T14:47:53.123Z,10.92
2022-11-05T14:50:23.532Z,10.83
2022-11-05T14:52:52.311Z,10.74
2022-11-05T14:55:28.311Z,10.76
2022-11-05T14:58:14.991Z,10.72
2022-11-05T15:04:28.436Z,10.62
2022-11-05T15:07:11.303Z,10.69
2022-11-05T15:09:40.712Z,10.62
2022-11-05T15:12:12.127Z,10.63
2022-11-05T15:14:42.322Z,10.55
2022-11-05T15:17:15.550Z,10.46
2022-11-05T15:19:45.579Z,10.48
2022-11-05T15:22:20.960Z,10.39
2022-11-05T15:24:49.132Z,10.45
2022-11-05T15:27:20.026Z,10.37
2022-11-05T15:29:48.100Z,10.39
2022-11-05T15:32:17.574Z,10.37
2022-11-05T15:34:53.398Z,10.33
2022-11-05T15:37:22.383Z,10.24
2022-11-05T15:39:51.050Z,10.24
2022-11-05T15:42:19.623Z,10.17
2022-11-05T15:44:48.506Z,10.09
2022-11-05T15:47:18.329Z,10.03
2022-11-05T15:49:47.913Z,9.99
2022-11-05T15:52:17.847Z,10.00
2022-11-05T15:54:53.303Z,10.05
2022-11-05T15:57:29.184Z,10.03
2022-11-05T15:59:57.275Z,9.96
2022-11-05T16:02:31.921Z,9.95
2022-11-05T16:05:01.350Z,9.84
2022-11-05T16:07:39.820Z,9.87
2022-11-05T16:10:21.972Z,9.84
2022-11-05T16:12:51.604Z,9.89
2022-11-05T16:15:24.264Z,9.88
2022-11-05T16:17:57.504Z,9.92
2022-11-05T16:20:30.067Z,9.89
2022-11-05T16:23:00.482Z,9.79
2022-11-05T16:25:31.050Z,9.82
2022-11-05T16:27:59.663Z,9.67
2022-11-05T16:30:28.001Z,9.72
2022-11-05T16:33:03.056Z,9.75
2022-11-05T16:35:31.400Z,9.78
2022-11-05T16:38:01.528Z,9.87
2022-11-05T16:40:29.418Z,9.71
2022-11-05T16:43:08.864Z,9.78
2022-11-05T16:45:41.218Z,9.78
2022-11-05T16:48:10.857Z,9.84
2022-11-05T16:50:39.131Z,9.82
2022-11-05T16:53:08.328Z,9.91
2022-11-05T16:55:38.297Z,9.98
2022-11-05T16:58:07.499Z,10.00
2022-11-05T17:00:35.536Z,10.02
2022-11-05T17:03:04.077Z,9.96
2022-11-05T17:05:32.239Z,9.95
2022-11-05T17:08:01.086Z,9.98
2022-11-05T17:10:30.737Z,9.98
2022-11-05T17:12:58.743Z,9.91
2022-11-05T17:15:27.806Z,9.91
2022-11-05T17:17:56.206Z,9.89
2022-11-05T17:20:27.602Z,9.93
2022-11-05T17:22:55.621Z,9.82
2022-11-05T17:25:23.594Z,9.90
2022-11-05T17:27:52.836Z,9.81
2022-11-05T17:30:21.024Z,9.82
2022-11-05T17:32:48.955Z,9.88
2022-11-05T17:35:17.292Z,9.82
2022-11-05T17:37:45.090Z,9.86
2022-11-05T17:40:16.876Z,9.79
2022-11-05T17:42:45.027Z,9.84
2022-11-05T17:45:14.582Z,9.77
2022-11-05T17:47:42.607Z,9.78
2022-11-05T17:50:11.749Z,9.89
2022-11-05T17:52:43.753Z,9.92
2022-11-05T17:55:17.362Z,9.91
2022-11-05T17:57:46.429Z,9.86
2022-11-05T18:00:17.080Z,9.87
2022-11-05T18:02:51.248Z,9.86
2022-11-05T18:05:19.621Z,9.79
2022-11-05T18:07:47.824Z,9.80
2022-11-05T18:10:16.224Z,9.79
2022-11-05T18:12:44.961Z,9.82
2022-11-05T18:15:13.916Z,9.84
2022-11-05T18:17:43.362Z,9.84
2022-11-05T18:20:17.557Z,9.91
2022-11-05T18:22:47.500Z,9.82
2022-11-05T18:25:15.488Z,9.75
2022-11-05T18:27:43.566Z,9.76
2022-11-05T18:30:14.063Z,9.78
2022-11-05T18:32:44.060Z,9.73
2022-11-05T18:35:13.172Z,9.76
2022-11-05T18:37:41.325Z,9.75
2022-11-05T18:40:09.808Z,9.72
2022-11-05T18:42:37.653Z,9.75
2022-11-05T18:45:06.037Z,9.72
2022-11-05T18:47:34.146Z,9.77
2022-11-05T18:50:03.342Z,9.82
2022-11-05T18:52:32.108Z,9.78
2022-11-05T18:55:00.585Z,9.83
2022-11-05T18:57:28.928Z,9.82
2022-11-05T18:59:56.830Z,9.84
2022-11-05T19:02:25.008Z,9.86
2022-11-05T19:05:26.605Z,9.71
2022-11-05T19:07:42.634Z,9.82
2022-11-05T19:10:10.458Z,9.80
2022-11-05T19:12:38.532Z,9.75
2022-11-05T19:15:07.998Z,9.79
2022-11-05T19:17:36.160Z,9.87
2022-11-05T19:20:05.478Z,9.86
2022-11-05T19:22:33.731Z,9.77
2022-11-05T19:25:02.922Z,9.86
2022-11-05T19:27:30.926Z,9.82
2022-11-05T19:29:58.775Z,9.78
2022-11-05T19:32:26.786Z,9.86
2022-11-05T19:34:54.620Z,9.82
2022-11-05T19:37:22.498Z,9.80
2022-11-05T19:39:50.301Z,9.78
2022-11-05T19:42:19.521Z,9.79
2022-11-05T19:44:47.596Z,9.79
2022-11-05T19:47:15.460Z,9.78
2022-11-05T19:49:43.326Z,9.71
2022-11-05T19:52:11.195Z,9.63
2022-11-05T19:54:39.081Z,9.65
2022-11-05T19:57:07.964Z,9.70
2022-11-05T19:59:37.327Z,9.58
2022-11-05T20:02:05.700Z,9.55
2022-11-05T20:04:33.710Z,9.55
2022-11-05T20:07:01.529Z,9.54
2022-11-05T20:09:29.526Z,9.54
2022-11-05T20:11:57.366Z,9.53
2022-11-05T20:14:25.908Z,9.58
2022-11-05T20:16:55.191Z,9.60
2022-11-05T20:19:23.913Z,9.59
2022-11-05T20:21:52.142Z,9.61
2022-11-05T20:24:24.782Z,9.58
2022-11-05T20:26:54.381Z,9.54
2022-11-05T20:29:22.423Z,9.55
2022-11-05T20:31:50.695Z,9.59
2022-11-05T20:34:19.994Z,9.61
2022-11-05T20:36:47.875Z,9.62
2022-11-05T20:39:16.831Z,9.55
2022-11-05T20:41:46.452Z,9.51
2022-11-05T20:44:14.939Z,9.42
2022-11-05T20:46:42.892Z,9.38
2022-11-05T20:49:11.077Z,9.37
2022-11-05T20:51:41.670Z,9.31
2022-11-05T20:54:10.769Z,9.34
2022-11-05T20:56:39.313Z,9.37
2022-11-05T20:59:07.726Z,9.39
2022-11-05T21:01:43.423Z,9.44
2022-11-05T21:04:17.745Z,9.37
2022-11-05T21:06:47.837Z,9.33
2022-11-05T21:09:15.998Z,9.40
2022-11-05T21:12:01.781Z,9.37
2022-11-05T21:14:30.515Z,9.37
2022-11-05T21:17:02.672Z,9.36
2022-11-05T21:19:37.012Z,9.29
2022-11-05T21:22:08.799Z,9.26
2022-11-05T21:24:37.180Z,9.25
2022-11-05T21:27:08.670Z,9.23
2022-11-05T21:29:37.137Z,9.20
2022-11-05T21:32:07.897Z,9.14
2022-11-05T21:34:36.050Z,9.03
2022-11-05T21:37:07.043Z,9.06
2022-11-05T21:39:35.108Z,9.08
2022-11-05T21:42:09.593Z,9.14
2022-11-05T21:44:41.589Z,9.04
2022-11-05T21:47:10.673Z,9.07
2022-11-05T21:49:40.057Z,9.02
2022-11-05T21:52:28.818Z,9.01
2022-11-05T21:55:14.339Z,9.00
2022-11-05T21:58:00.092Z,8.95
2022-11-05T22:00:28.596Z,9.00
2022-11-05T22:02:56.451Z,9.01
2022-11-05T22:05:24.394Z,9.03
2022-11-05T22:07:53.740Z,9.00
2022-11-05T22:10:21.727Z,8.95
2022-11-05T22:12:50.200Z,9.00
2022-11-05T22:15:18.288Z,9.04
2022-11-05T22:17:50.456Z,9.00
2022-11-05T22:20:18.765Z,9.02
2022-11-05T22:22:46.740Z,9.01
2022-11-05T22:25:16.938Z,8.95
2022-11-05T22:27:45.142Z,8.92
2022-11-05T22:30:14.470Z,8.92
2022-11-05T22:32:42.530Z,8.81
2022-11-05T22:35:13.825Z,8.77
2022-11-05T22:37:42.465Z,8.80
2022-11-05T22:40:23.877Z,8.81
2022-11-05T22:42:52.945Z,8.75
2022-11-05T22:45:27.828Z,8.78
2022-11-05T22:47:56.145Z,8.73
2022-11-05T22:50:24.249Z,8.71
2022-11-05T22:52:52.376Z,8.70
2022-11-05T22:55:21.573Z,8.64
2022-11-05T22:57:49.731Z,8.61
2022-11-05T23:00:18.534Z,8.61
2022-11-05T23:03:02.732Z,8.51
2022-11-05T23:05:30.817Z,8.42
2022-11-05T23:08:16.205Z,8.43
2022-11-05T23:11:03.370Z,8.42
2022-11-05T23:13:31.474Z,8.45
2022-11-05T23:16:17.071Z,8.43
2022-11-05T23:19:02.494Z,8.51
2022-11-05T23:21:47.976Z,8.53
2022-11-05T23:24:16.031Z,8.58
2022-11-05T23:26:50.835Z,8.68
2022-11-05T23:29:19.251Z,8.69
2022-11-05T23:32:04.608Z,8.68
2022-11-05T23:34:32.639Z,8.73
2022-11-05T23:37:17.681Z,8.70
2022-11-05T23:39:45.674Z,8.67
2022-11-05T23:42:32.494Z,8.74
2022-11-05T23:45:17.908Z,8.80
2022-11-05T23:48:03.291Z,8.70
2022-11-05T23:50:34.361Z,8.71
2022-11-05T23:53:06.560Z,8.64
2022-11-05T23:55:34.490Z,8.68
2022-11-05T23:58:03.795Z,8.65
